sensor_id;sensor_type;location;lat;lon;timestamp;pressure;altitude;pressure_sealevel;temperature;humidity
50933;BME280;36921;49.006;9.292;2023-03-19T00:02:17;98436.31;;;7.92;100.00
50933;BME280;36921;49.006;9.292;2023-03-19T00:04:43;98473.59;;;8.16;100.00
50933;BME280;36921;49.006;9.292;2023-03-19T00:07:09;98477.75;;;8.19;100.00
50933;BME280;36921;49.006;9.292;2023-03-19T00:09:35;98478.56;;;8.12;100.00
50933;BME280;36921;49.006;9.292;2023-03-19T00:12:00;98440.19;;;7.82;100.00
50933;BME280;36921;49.006;9.292;2023-03-19T00:14:25;98463.50;;;7.97;100.00
50933;BME280;36921;49.006;9.292;2023-03-19T00:16:51;98461.00;;;7.95;100.00
50933;BME280;36921;49.006;9.292;2023-03-19T00:19:16;98490.50;;;8.03;100.00
50933;BME280;36921;49.006;9.292;2023-03-19T00:21:41;98469.22;;;7.87;100.00
50933;BME280;36921;49.006;9.292;2023-03-19T00:24:07;98492.78;;;8.06;100.00
50933;BME280;36921;49.006;9.292;2023-03-19T00:26:35;98454.31;;;7.91;100.00
50933;BME280;36921;49.006;9.292;2023-03-19T00:29:01;98488.44;;;8.05;100.00
50933;BME280;36921;49.006;9.292;2023-03-19T00:31:27;98479.41;;;8.20;100.00
50933;BME280;36921;49.006;9.292;2023-03-19T00:33:55;98479.16;;;8.15;100.00
50933;BME280;36921;49.006;9.292;2023-03-19T00:36:21;98474.66;;;8.22;100.00
50933;BME280;36921;49.006;9.292;2023-03-19T00:38:47;98472.28;;;8.05;100.00
50933;BME280;36921;49.006;9.292;2023-03-19T00:41:13;98466.25;;;8.03;100.00
50933;BME280;36921;49.006;9.292;2023-03-19T00:43:39;98492.78;;;8.06;100.00
50933;BME280;36921;49.006;9.292;2023-03-19T00:46:05;98479.03;;;7.95;100.00
50933;BME280;36921;49.006;9.292;2023-03-19T00:48:31;98470.44;;;7.84;100.00
50933;BME280;36921;49.006;9.292;2023-03-19T00:51:08;98495.50;;;7.85;100.00
50933;BME280;36921;49.006;9.292;2023-03-19T00:53:41;98475.72;;;7.71;100.00
50933;BME280;36921;49.006;9.292;2023-03-19T00:56:11;98476.81;;;7.77;100.00
50933;BME280;36921;49.006;9.292;2023-03-19T00:58:37;98483.09;;;7.84;100.00
50933;BME280;36921;49.006;9.292;2023-03-19T01:01:05;98480.94;;;8.01;100.00
50933;BME280;36921;49.006;9.292;2023-03-19T01:03:30;98482.97;;;7.99;100.00
50933;BME280;36921;49.006;9.292;2023-03-19T01:05:57;98484.22;;;7.96;100.00
50933;BME280;36921;49.006;9.292;2023-03-19T01:08:22;98474.03;;;7.92;100.00
50933;BME280;36921;49.006;9.292;2023-03-19T01:10:47;98472.97;;;7.86;100.00
50933;BME280;36921;49.006;9.292;2023-03-19T01:13:13;98475.25;;;7.89;100.00
50933;BME280;36921;49.006;9.292;2023-03-19T01:15:40;98472.56;;;7.89;100.00
50933;BME280;36921;49.006;9.292;2023-03-19T01:18:07;98471.84;;;8.02;100.00
50933;BME280;36921;49.006;9.292;2023-03-19T01:20:34;98457.28;;;7.96;100.00
50933;BME280;36921;49.006;9.292;2023-03-19T01:22:59;98470.47;;;8.12;100.00
50933;BME280;36921;49.006;9.292;2023-03-19T01:25:26;98474.81;;;8.13;100.00
50933;BME280;36921;49.006;9.292;2023-03-19T01:27:51;98487.31;;;8.21;100.00
50933;BME280;36921;49.006;9.292;2023-03-19T01:30:17;98483.22;;;8.25;100.00
50933;BME280;36921;49.006;9.292;2023-03-19T01:32:42;98476.44;;;8.08;100.00
50933;BME280;36921;49.006;9.292;2023-03-19T01:35:08;98482.56;;;7.95;100.00
50933;BME280;36921;49.006;9.292;2023-03-19T01:37:34;98482.72;;;7.94;100.00
50933;BME280;36921;49.006;9.292;2023-03-19T01:39:59;98492.78;;;8.06;100.00
50933;BME280;36921;49.006;9.292;2023-03-19T01:42:25;98499.16;;;7.99;100.00
50933;BME280;36921;49.006;9.292;2023-03-19T01:44:50;98470.50;;;7.91;100.00
50933;BME280;36921;49.006;9.292;2023-03-19T01:47:18;98412.69;;;7.44;100.00
50933;BME280;36921;49.006;9.292;2023-03-19T01:49:52;98473.84;;;7.72;100.00
50933;BME280;36921;49.006;9.292;2023-03-19T01:52:19;98503.47;;;7.72;100.00
50933;BME280;36921;49.006;9.292;2023-03-19T01:54:45;98503.47;;;7.72;100.00
50933;BME280;36921;49.006;9.292;2023-03-19T01:57:13;98507.72;;;7.81;100.00
50933;BME280;36921;49.006;9.292;2023-03-19T01:59:47;98528.28;;;7.88;100.00
50933;BME280;36921;49.006;9.292;2023-03-19T02:02:20;98518.50;;;7.81;100.00
50933;BME280;36921;49.006;9.292;2023-03-19T02:04:51;98548.50;;;7.99;100.00
50933;BME280;36921;49.006;9.292;2023-03-19T02:07:18;98530.22;;;7.95;100.00
50933;BME280;36921;49.006;9.292;2023-03-19T02:09:44;98516.16;;;7.78;100.00
50933;BME280;36921;49.006;9.292;2023-03-19T02:12:11;98539.19;;;7.80;100.00
50933;BME280;36921;49.006;9.292;2023-03-19T02:14:37;98538.59;;;7.85;100.00
50933;BME280;36921;49.006;9.292;2023-03-19T02:17:02;98554.63;;;7.93;100.00
50933;BME280;36921;49.006;9.292;2023-03-19T02:19:39;98558.28;;;7.85;100.00
50933;BME280;36921;49.006;9.292;2023-03-19T02:22:08;98554.72;;;7.78;100.00
50933;BME280;36921;49.006;9.292;2023-03-19T02:24:40;98574.53;;;7.92;100.00
50933;BME280;36921;49.006;9.292;2023-03-19T02:27:09;98576.00;;;7.95;100.00
50933;BME280;36921;49.006;9.292;2023-03-19T02:29:34;98579.00;;;7.85;100.00
50933;BME280;36921;49.006;9.292;2023-03-19T02:32:00;98572.63;;;7.86;100.00
50933;BME280;36921;49.006;9.292;2023-03-19T02:34:36;98581.31;;;7.88;100.00
50933;BME280;36921;49.006;9.292;2023-03-19T02:37:12;98574.13;;;7.95;100.00
50933;BME280;36921;49.006;9.292;2023-03-19T02:40:19;98584.91;;;7.95;100.00
50933;BME280;36921;49.006;9.292;2023-03-19T02:42:46;98571.56;;;7.87;100.00
50933;BME280;36921;49.006;9.292;2023-03-19T02:45:12;98567.00;;;7.87;100.00
50933;BME280;36921;49.006;9.292;2023-03-19T02:47:37;98582.59;;;7.92;100.00
50933;BME280;36921;49.006;9.292;2023-03-19T02:50:03;98575.03;;;8.02;100.00
50933;BME280;36921;49.006;9.292;2023-03-19T02:52:29;98573.22;;;8.09;100.00
50933;BME280;36921;49.006;9.292;2023-03-19T02:54:54;98563.06;;;8.05;100.00
50933;BME280;36921;49.006;9.292;2023-03-19T02:57:19;98584.09;;;8.16;100.00
50933;BME280;36921;49.006;9.292;2023-03-19T02:59:45;98576.44;;;8.20;100.00
50933;BME280;36921;49.006;9.292;2023-03-19T03:02:10;98587.59;;;8.17;100.00
50933;BME280;36921;49.006;9.292;2023-03-19T03:04:35;98575.34;;;8.14;100.00
50933;BME280;36921;49.006;9.292;2023-03-19T03:07:02;98599.41;;;8.16;100.00
50933;BME280;36921;49.006;9.292;2023-03-19T03:09:27;98589.66;;;8.15;100.00
50933;BME280;36921;49.006;9.292;2023-03-19T03:11:52;98583.00;;;8.10;100.00
50933;BME280;36921;49.006;9.292;2023-03-19T03:14:18;98583.00;;;8.10;100.00
50933;BME280;36921;49.006;9.292;2023-03-19T03:16:43;98596.66;;;8.09;100.00
50933;BME280;36921;49.006;9.292;2023-03-19T03:19:09;98589.88;;;8.13;100.00
50933;BME280;36921;49.006;9.292;2023-03-19T03:21:35;98595.81;;;8.08;100.00
50933;BME280;36921;49.006;9.292;2023-03-19T03:24:01;98600.16;;;8.09;100.00
50933;BME280;36921;49.006;9.292;2023-03-19T03:26:26;98598.84;;;8.20;100.00
50933;BME280;36921;49.006;9.292;2023-03-19T03:28:52;98598.38;;;8.17;100.00
50933;BME280;36921;49.006;9.292;2023-03-19T03:31:17;98596.25;;;8.12;100.00
50933;BME280;36921;49.006;9.292;2023-03-19T03:33:43;98588.81;;;8.14;100.00
50933;BME280;36921;49.006;9.292;2023-03-19T03:36:08;98597.94;;;8.13;100.00
50933;BME280;36921;49.006;9.292;2023-03-19T03:38:34;98595.25;;;8.13;100.00
50933;BME280;36921;49.006;9.292;2023-03-19T03:40:59;98596.47;;;8.10;100.00
50933;BME280;36921;49.006;9.292;2023-03-19T03:43:25;98598.78;;;8.13;100.00
50933;BME280;36921;49.006;9.292;2023-03-19T03:45:50;98592.00;;;8.18;100.00
50933;BME280;36921;49.006;9.292;2023-03-19T03:48:16;98594.88;;;8.16;100.00
50933;BME280;36921;49.006;9.292;2023-03-19T03:50:41;98578.38;;;8.04;100.00
50933;BME280;36921;49.006;9.292;2023-03-19T03:53:07;98593.34;;;8.07;100.00
50933;BME280;36921;49.006;9.292;2023-03-19T03:55:33;98586.09;;;8.07;100.00
50933;BME280;36921;49.006;9.292;2023-03-19T03:57:59;98580.34;;;7.96;100.00
50933;BME280;36921;49.006;9.292;2023-03-19T04:00:24;98568.56;;;7.97;100.00
50933;BME280;36921;49.006;9.292;2023-03-19T04:02:50;98582.91;;;8.04;100.00
50933;BME280;36921;49.006;9.292;2023-03-19T04:05:16;98589.53;;;8.01;100.00
50933;BME280;36921;49.006;9.292;2023-03-19T04:07:41;98594.09;;;8.01;100.00
50933;BME280;36921;49.006;9.292;2023-03-19T04:10:08;98595.94;;;8.00;100.00
50933;BME280;36921;49.006;9.292;2023-03-19T04:12:35;98596.34;;;7.97;100.00
50933;BME280;36921;49.006;9.292;2023-03-19T04:15:02;98593.44;;;7.99;100.00
50933;BME280;36921;49.006;9.292;2023-03-19T04:17:28;98591.97;;;7.96;100.00
50933;BME280;36921;49.006;9.292;2023-03-19T04:19:53;98586.09;;;7.86;100.00
50933;BME280;36921;49.006;9.292;2023-03-19T04:22:18;98604.03;;;8.00;100.00
50933;BME280;36921;49.006;9.292;2023-03-19T04:24:43;98608.97;;;7.97;100.00
50933;BME280;36921;49.006;9.292;2023-03-19T04:27:09;98608.13;;;7.96;100.00
50933;BME280;36921;49.006;9.292;2023-03-19T04:29:34;98607.75;;;7.99;100.00
50933;BME280;36921;49.006;9.292;2023-03-19T04:32:00;98614.16;;;7.98;100.00
50933;BME280;36921;49.006;9.292;2023-03-19T04:34:25;98605.00;;;7.93;100.00
50933;BME280;36921;49.006;9.292;2023-03-19T04:36:50;98614.28;;;7.90;100.00
50933;BME280;36921;49.006;9.292;2023-03-19T04:39:16;98617.81;;;7.90;100.00
50933;BME280;36921;49.006;9.292;2023-03-19T04:41:42;98623.78;;;7.86;100.00
50933;BME280;36921;49.006;9.292;2023-03-19T04:44:08;98642.19;;;7.67;100.00
50933;BME280;36921;49.006;9.292;2023-03-19T04:46:33;98623.56;;;7.51;100.00
50933;BME280;36921;49.006;9.292;2023-03-19T04:48:59;98638.41;;;7.62;100.00
50933;BME280;36921;49.006;9.292;2023-03-19T04:51:24;98639.88;;;7.64;100.00
50933;BME280;36921;49.006;9.292;2023-03-19T04:53:50;98641.19;;;7.68;100.00
50933;BME280;36921;49.006;9.292;2023-03-19T04:56:15;98614.25;;;7.68;100.00
50933;BME280;36921;49.006;9.292;2023-03-19T04:58:42;98635.31;;;7.80;100.00
50933;BME280;36921;49.006;9.292;2023-03-19T05:01:07;98638.53;;;7.90;100.00
50933;BME280;36921;49.006;9.292;2023-03-19T05:03:33;98624.41;;;7.88;100.00
50933;BME280;36921;49.006;9.292;2023-03-19T05:05:58;98636.41;;;7.85;100.00
50933;BME280;36921;49.006;9.292;2023-03-19T05:08:24;98629.63;;;7.89;100.00
50933;BME280;36921;49.006;9.292;2023-03-19T05:10:49;98636.22;;;7.87;100.00
50933;BME280;36921;49.006;9.292;2023-03-19T05:13:14;98635.66;;;7.92;100.00
50933;BME280;36921;49.006;9.292;2023-03-19T05:15:41;98643.34;;;7.95;100.00
50933;BME280;36921;49.006;9.292;2023-03-19T05:18:07;98636.28;;;7.94;100.00
50933;BME280;36921;49.006;9.292;2023-03-19T05:20:32;98650.75;;;8.07;100.00
50933;BME280;36921;49.006;9.292;2023-03-19T05:22:58;98647.22;;;8.07;100.00
50933;BME280;36921;49.006;9.292;2023-03-19T05:25:24;98648.88;;;8.08;100.00
50933;BME280;36921;49.006;9.292;2023-03-19T05:27:49;98642.00;;;8.05;100.00
50933;BME280;36921;49.006;9.292;2023-03-19T05:30:14;98653.81;;;8.04;100.00
50933;BME280;36921;49.006;9.292;2023-03-19T05:32:42;98653.50;;;8.14;100.00
50933;BME280;36921;49.006;9.292;2023-03-19T05:35:08;98651.75;;;8.06;100.00
50933;BME280;36921;49.006;9.292;2023-03-19T05:37:33;98629.31;;;7.99;100.00
50933;BME280;36921;49.006;9.292;2023-03-19T05:39:59;98646.63;;;8.11;100.00
50933;BME280;36921;49.006;9.292;2023-03-19T05:42:24;98627.31;;;8.08;100.00
50933;BME280;36921;49.006;9.292;2023-03-19T05:44:50;98633.63;;;8.15;100.00
50933;BME280;36921;49.006;9.292;2023-03-19T05:47:15;98633.69;;;8.22;100.00
50933;BME280;36921;49.006;9.292;2023-03-19T05:49:40;98649.56;;;8.38;100.00
50933;BME280;36921;49.006;9.292;2023-03-19T05:52:05;98648.09;;;8.35;100.00
50933;BME280;36921;49.006;9.292;2023-03-19T05:54:31;98649.03;;;8.43;100.00
50933;BME280;36921;49.006;9.292;2023-03-19T05:56:57;98637.97;;;8.38;100.00
50933;BME280;36921;49.006;9.292;2023-03-19T05:59:22;98650.72;;;8.44;100.00
50933;BME280;36921;49.006;9.292;2023-03-19T06:01:47;98665.34;;;8.56;100.00
50933;BME280;36921;49.006;9.292;2023-03-19T06:04:13;98648.16;;;8.57;100.00
50933;BME280;36921;49.006;9.292;2023-03-19T06:06:38;98651.22;;;8.54;100.00
50933;BME280;36921;49.006;9.292;2023-03-19T06:09:03;98645.06;;;8.60;100.00
50933;BME280;36921;49.006;9.292;2023-03-19T06:11:29;98648.19;;;8.64;100.00
50933;BME280;36921;49.006;9.292;2023-03-19T06:13:55;98659.28;;;8.75;100.00
50933;BME280;36921;49.006;9.292;2023-03-19T06:16:20;98664.28;;;8.78;100.00
50933;BME280;36921;49.006;9.292;2023-03-19T06:18:45;98669.47;;;8.80;100.00
50933;BME280;36921;49.006;9.292;2023-03-19T06:21:11;98686.66;;;9.00;100.00
50933;BME280;36921;49.006;9.292;2023-03-19T06:23:37;98684.19;;;8.99;100.00
50933;BME280;36921;49.006;9.292;2023-03-19T06:26:02;98665.88;;;8.94;100.00
50933;BME280;36921;49.006;9.292;2023-03-19T06:28:28;98665.38;;;9.12;100.00
50933;BME280;36921;49.006;9.292;2023-03-19T06:30:54;98680.81;;;9.25;100.00
50933;BME280;36921;49.006;9.292;2023-03-19T06:33:20;98654.53;;;9.40;100.00
50933;BME280;36921;49.006;9.292;2023-03-19T06:35:47;98664.78;;;9.52;100.00
50933;BME280;36921;49.006;9.292;2023-03-19T06:38:13;98674.78;;;9.58;100.00
50933;BME280;36921;49.006;9.292;2023-03-19T06:40:52;98665.84;;;9.64;100.00
50933;BME280;36921;49.006;9.292;2023-03-19T06:43:18;98641.75;;;9.62;100.00
50933;BME280;36921;49.006;9.292;2023-03-19T06:45:43;98661.19;;;9.86;100.00
50933;BME280;36921;49.006;9.292;2023-03-19T06:48:09;98631.47;;;9.86;100.00
50933;BME280;36921;49.006;9.292;2023-03-19T06:50:34;98658.94;;;10.03;100.00
50933;BME280;36921;49.006;9.292;2023-03-19T06:53:00;98641.50;;;10.12;100.00
50933;BME280;36921;49.006;9.292;2023-03-19T06:55:26;98651.50;;;10.18;100.00
50933;BME280;36921;49.006;9.292;2023-03-19T06:57:51;98662.19;;;10.40;100.00
50933;BME280;36921;49.006;9.292;2023-03-19T07:00:17;98668.00;;;10.37;100.00
50933;BME280;36921;49.006;9.292;2023-03-19T07:02:43;98661.13;;;10.34;100.00
50933;BME280;36921;49.006;9.292;2023-03-19T07:05:09;98639.88;;;10.24;100.00
50933;BME280;36921;49.006;9.292;2023-03-19T07:07:35;98648.28;;;10.43;100.00
50933;BME280;36921;49.006;9.292;2023-03-19T07:10:00;98655.31;;;10.44;100.00
50933;BME280;36921;49.006;9.292;2023-03-19T07:12:26;98658.88;;;10.51;100.00
50933;BME280;36921;49.006;9.292;2023-03-19T07:14:55;98657.41;;;10.55;100.00
50933;BME280;36921;49.006;9.292;2023-03-19T07:17:21;98672.00;;;10.67;100.00
50933;BME280;36921;49.006;9.292;2023-03-19T07:19:47;98673.88;;;10.73;100.00
50933;BME280;36921;49.006;9.292;2023-03-19T07:22:12;98644.94;;;10.74;100.00
50933;BME280;36921;49.006;9.292;2023-03-19T07:24:37;98670.53;;;10.91;100.00
50933;BME280;36921;49.006;9.292;2023-03-19T07:27:03;98664.09;;;11.06;100.00
50933;BME280;36921;49.006;9.292;2023-03-19T07:29:28;98675.91;;;11.31;100.00
50933;BME280;36921;49.006;9.292;2023-03-19T07:32:00;98666.91;;;11.44;100.00
50933;BME280;36921;49.006;9.292;2023-03-19T07:34:25;98674.97;;;11.71;100.00
50933;BME280;36921;49.006;9.292;2023-03-19T07:36:51;98672.41;;;11.96;100.00
50933;BME280;36921;49.006;9.292;2023-03-19T07:39:17;98676.72;;;12.10;100.00
50933;BME280;36921;49.006;9.292;2023-03-19T07:41:43;98680.22;;;12.24;100.00
50933;BME280;36921;49.006;9.292;2023-03-19T07:44:11;98680.28;;;12.11;100.00
50933;BME280;36921;49.006;9.292;2023-03-19T07:46:37;98668.81;;;12.02;100.00
50933;BME280;36921;49.006;9.292;2023-03-19T07:49:02;98666.78;;;11.84;100.00
50933;BME280;36921;49.006;9.292;2023-03-19T07:51:27;98679.03;;;12.06;100.00
50933;BME280;36921;49.006;9.292;2023-03-19T07:53:53;98689.97;;;11.80;100.00
50933;BME280;36921;49.006;9.292;2023-03-19T07:56:18;98676.84;;;11.70;100.00
50933;BME280;36921;49.006;9.292;2023-03-19T07:58:43;98691.91;;;11.59;100.00
50933;BME280;36921;49.006;9.292;2023-03-19T08:01:09;98681.91;;;11.47;100.00
50933;BME280;36921;49.006;9.292;2023-03-19T08:03:34;98675.06;;;11.44;100.00
50933;BME280;36921;49.006;9.292;2023-03-19T08:06:00;98679.84;;;11.49;100.00
50933;BME280;36921;49.006;9.292;2023-03-19T08:08:25;98679.63;;;11.50;100.00
50933;BME280;36921;49.006;9.292;2023-03-19T08:10:55;98670.41;;;11.65;100.00
50933;BME280;36921;49.006;9.292;2023-03-19T08:13:21;98677.44;;;11.85;100.00
50933;BME280;36921;49.006;9.292;2023-03-19T08:15:48;98658.59;;;12.11;100.00
50933;BME280;36921;49.006;9.292;2023-03-19T08:18:14;98659.94;;;12.83;100.00
50933;BME280;36921;49.006;9.292;2023-03-19T08:20:39;98672.97;;;13.25;100.00
50933;BME280;36921;49.006;9.292;2023-03-19T08:23:05;98671.75;;;13.64;100.00
50933;BME280;36921;49.006;9.292;2023-03-19T08:25:30;98653.91;;;14.05;100.00
50933;BME280;36921;49.006;9.292;2023-03-19T08:27:57;98672.47;;;14.08;100.00
50933;BME280;36921;49.006;9.292;2023-03-19T08:30:23;98678.13;;;14.07;100.00
50933;BME280;36921;49.006;9.292;2023-03-19T08:32:49;98669.47;;;13.98;100.00
50933;BME280;36921;49.006;9.292;2023-03-19T08:35:14;98683.84;;;14.17;100.00
50933;BME280;36921;49.006;9.292;2023-03-19T08:37:40;98657.75;;;14.28;100.00
50933;BME280;36921;49.006;9.292;2023-03-19T08:40:06;98643.13;;;14.40;100.00
50933;BME280;36921;49.006;9.292;2023-03-19T08:42:32;98684.63;;;14.96;100.00
50933;BME280;36921;49.006;9.292;2023-03-19T08:44:57;98666.03;;;15.17;100.00
50933;BME280;36921;49.006;9.292;2023-03-19T08:47:22;98680.00;;;15.32;100.00
50933;BME280;36921;49.006;9.292;2023-03-19T08:49:49;98668.28;;;15.20;100.00
50933;BME280;36921;49.006;9.292;2023-03-19T08:52:15;98645.06;;;15.05;100.00
50933;BME280;36921;49.006;9.292;2023-03-19T08:54:41;98661.53;;;14.99;100.00
50933;BME280;36921;49.006;9.292;2023-03-19T08:57:06;98623.38;;;14.75;100.00
50933;BME280;36921;49.006;9.292;2023-03-19T08:59:31;98660.38;;;14.64;100.00
50933;BME280;36921;49.006;9.292;2023-03-19T09:01:57;98666.16;;;14.56;100.00
50933;BME280;36921;49.006;9.292;2023-03-19T09:04:22;98687.09;;;14.98;100.00
50933;BME280;36921;49.006;9.292;2023-03-19T09:06:48;98678.69;;;16.79;100.00
50933;BME280;36921;49.006;9.292;2023-03-19T09:09:17;98678.88;;;19.04;94.96
50933;BME280;36921;49.006;9.292;2023-03-19T09:11:43;98659.25;;;20.18;79.02
50933;BME280;36921;49.006;9.292;2023-03-19T09:14:08;98681.44;;;21.31;69.98
50933;BME280;36921;49.006;9.292;2023-03-19T09:16:35;98677.75;;;24.75;56.30
50933;BME280;36921;49.006;9.292;2023-03-19T09:19:01;98692.00;;;27.13;48.81
50933;BME280;36921;49.006;9.292;2023-03-19T09:21:26;98671.84;;;28.24;43.99
50933;BME280;36921;49.006;9.292;2023-03-19T09:23:51;98679.78;;;29.52;39.95
50933;BME280;36921;49.006;9.292;2023-03-19T09:26:17;98676.84;;;27.64;41.86
50933;BME280;36921;49.006;9.292;2023-03-19T09:28:42;98680.59;;;25.07;45.09
50933;BME280;36921;49.006;9.292;2023-03-19T09:31:10;98671.84;;;23.13;48.82
50933;BME280;36921;49.006;9.292;2023-03-19T09:33:36;98679.75;;;21.60;51.17
50933;BME280;36921;49.006;9.292;2023-03-19T09:36:02;98670.78;;;22.15;53.30
50933;BME280;36921;49.006;9.292;2023-03-19T09:38:27;98673.03;;;24.37;47.80
50933;BME280;36921;49.006;9.292;2023-03-19T09:44:03;98671.13;;;23.60;48.14
50933;BME280;36921;49.006;9.292;2023-03-19T09:46:39;98658.31;;;26.19;44.91
50933;BME280;36921;49.006;9.292;2023-03-19T09:49:13;98666.72;;;27.37;41.62
50933;BME280;36921;49.006;9.292;2023-03-19T09:57:09;98656.91;;;28.59;40.03
50933;BME280;36921;49.006;9.292;2023-03-19T09:59:35;98657.53;;;28.74;38.14
50933;BME280;36921;49.006;9.292;2023-03-19T10:08:06;98659.75;;;28.37;37.29
50933;BME280;36921;49.006;9.292;2023-03-19T10:13:29;98652.66;;;28.79;36.82
50933;BME280;36921;49.006;9.292;2023-03-19T10:15:58;98655.50;;;25.78;40.46
50933;BME280;36921;49.006;9.292;2023-03-19T10:18:28;98656.81;;;26.63;39.97
50933;BME280;36921;49.006;9.292;2023-03-19T10:21:10;98641.47;;;25.74;38.86
50933;BME280;36921;49.006;9.292;2023-03-19T10:26:15;98654.81;;;27.00;36.30
50933;BME280;36921;49.006;9.292;2023-03-19T10:28:42;98650.50;;;27.93;35.52
50933;BME280;36921;49.006;9.292;2023-03-19T10:31:28;98662.59;;;26.89;36.73
50933;BME280;36921;49.006;9.292;2023-03-19T10:36:40;98654.94;;;29.03;34.53
50933;BME280;36921;49.006;9.292;2023-03-19T10:39:06;98644.34;;;29.70;33.53
50933;BME280;36921;49.006;9.292;2023-03-19T10:44:26;98638.06;;;27.59;35.26
50933;BME280;36921;49.006;9.292;2023-03-19T10:46:52;98635.69;;;25.10;38.60
50933;BME280;36921;49.006;9.292;2023-03-19T10:49:20;98629.72;;;26.83;36.96
50933;BME280;36921;49.006;9.292;2023-03-19T10:51:46;98629.41;;;27.61;35.62
50933;BME280;36921;49.006;9.292;2023-03-19T10:54:23;98615.81;;;27.05;36.00
50933;BME280;36921;49.006;9.292;2023-03-19T10:56:49;98618.03;;;27.80;35.56
50933;BME280;36921;49.006;9.292;2023-03-19T11:02:02;98634.78;;;24.20;40.08
50933;BME280;36921;49.006;9.292;2023-03-19T11:04:28;98633.78;;;25.99;36.90
50933;BME280;36921;49.006;9.292;2023-03-19T11:07:10;98615.56;;;28.27;35.09
50933;BME280;36921;49.006;9.292;2023-03-19T11:09:38;98605.59;;;27.15;36.04
50933;BME280;36921;49.006;9.292;2023-03-19T11:14:41;98617.09;;;24.97;37.93
50933;BME280;36921;49.006;9.292;2023-03-19T11:20:21;98613.81;;;29.09;33.71
50933;BME280;36921;49.006;9.292;2023-03-19T11:22:48;98611.84;;;29.74;33.91
50933;BME280;36921;49.006;9.292;2023-03-19T11:25:18;98616.44;;;28.62;34.01
50933;BME280;36921;49.006;9.292;2023-03-19T11:30:55;98622.06;;;25.14;37.95
50933;BME280;36921;49.006;9.292;2023-03-19T11:33:37;98615.88;;;23.90;38.63
50933;BME280;36921;49.006;9.292;2023-03-19T11:36:12;98601.28;;;25.17;38.14
50933;BME280;36921;49.006;9.292;2023-03-19T11:39:26;98612.66;;;24.63;38.42
50933;BME280;36921;49.006;9.292;2023-03-19T11:42:01;98613.66;;;23.38;39.96
50933;BME280;36921;49.006;9.292;2023-03-19T11:49:41;98607.22;;;23.19;41.91
50933;BME280;36921;49.006;9.292;2023-03-19T11:55:11;98598.59;;;22.57;42.92
50933;BME280;36921;49.006;9.292;2023-03-19T12:00:49;98593.28;;;22.26;43.99
50933;BME280;36921;49.006;9.292;2023-03-19T12:06:30;98572.97;;;25.20;40.70
50933;BME280;36921;49.006;9.292;2023-03-19T12:09:11;98582.47;;;25.88;39.14
50933;BME280;36921;49.006;9.292;2023-03-19T12:11:56;98581.72;;;26.10;38.48
50933;BME280;36921;49.006;9.292;2023-03-19T12:17:33;98583.47;;;25.50;38.75
50933;BME280;36921;49.006;9.292;2023-03-19T12:22:58;98574.66;;;25.76;39.27
50933;BME280;36921;49.006;9.292;2023-03-19T12:25:29;98568.28;;;26.39;38.19
50933;BME280;36921;49.006;9.292;2023-03-19T12:28:21;98557.41;;;27.42;36.42
50933;BME280;36921;49.006;9.292;2023-03-19T12:35:52;98550.34;;;25.73;37.99
50933;BME280;36921;49.006;9.292;2023-03-19T12:41:08;98576.91;;;26.74;37.03
50933;BME280;36921;49.006;9.292;2023-03-19T12:51:12;98565.84;;;24.67;39.14
50933;BME280;36921;49.006;9.292;2023-03-19T12:53:49;98548.44;;;24.10;39.90
50933;BME280;36921;49.006;9.292;2023-03-19T12:56:43;98548.56;;;25.22;40.40
50933;BME280;36921;49.006;9.292;2023-03-19T13:01:58;98557.78;;;24.14;41.75
50933;BME280;36921;49.006;9.292;2023-03-19T13:04:29;98555.84;;;23.71;42.94
50933;BME280;36921;49.006;9.292;2023-03-19T13:07:07;98564.19;;;22.84;43.49
50933;BME280;36921;49.006;9.292;2023-03-19T13:09:52;98563.53;;;21.69;45.94
50933;BME280;36921;49.006;9.292;2023-03-19T13:12:31;98555.22;;;20.93;48.29
50933;BME280;36921;49.006;9.292;2023-03-19T13:15:20;98579.31;;;20.20;50.66
50933;BME280;36921;49.006;9.292;2023-03-19T13:20:56;98582.50;;;17.99;55.11
50933;BME280;36921;49.006;9.292;2023-03-19T13:23:22;98585.97;;;17.28;66.80
50933;BME280;36921;49.006;9.292;2023-03-19T13:25:50;98575.06;;;16.27;100.00
50933;BME280;36921;49.006;9.292;2023-03-19T13:28:29;98591.28;;;15.76;100.00
50933;BME280;36921;49.006;9.292;2023-03-19T13:31:03;98573.97;;;15.19;100.00
50933;BME280;36921;49.006;9.292;2023-03-19T13:33:30;98573.16;;;14.95;100.00
50933;BME280;36921;49.006;9.292;2023-03-19T13:36:00;98584.78;;;15.02;100.00
50933;BME280;36921;49.006;9.292;2023-03-19T13:38:41;98580.97;;;15.15;100.00
50933;BME280;36921;49.006;9.292;2023-03-19T13:46:42;98596.00;;;14.70;100.00
50933;BME280;36921;49.006;9.292;2023-03-19T13:51:46;98575.16;;;14.64;100.00
50933;BME280;36921;49.006;9.292;2023-03-19T13:59:48;98597.81;;;15.64;100.00
50933;BME280;36921;49.006;9.292;2023-03-19T14:04:49;98573.88;;;15.66;100.00
50933;BME280;36921;49.006;9.292;2023-03-19T14:07:18;98587.78;;;15.52;100.00
50933;BME280;36921;49.006;9.292;2023-03-19T14:09:47;98592.19;;;15.30;100.00
50933;BME280;36921;49.006;9.292;2023-03-19T14:14:47;98581.19;;;15.25;100.00
50933;BME280;36921;49.006;9.292;2023-03-19T14:17:44;98595.03;;;15.35;100.00
50933;BME280;36921;49.006;9.292;2023-03-19T14:25:26;98589.41;;;15.53;100.00
50933;BME280;36921;49.006;9.292;2023-03-19T14:28:00;98583.25;;;16.27;100.00
50933;BME280;36921;49.006;9.292;2023-03-19T14:30:43;98589.09;;;16.81;100.00
50933;BME280;36921;49.006;9.292;2023-03-19T14:33:42;98590.31;;;17.07;100.00
50933;BME280;36921;49.006;9.292;2023-03-19T14:36:11;98595.22;;;16.89;100.00
50933;BME280;36921;49.006;9.292;2023-03-19T14:38:58;98599.75;;;16.66;100.00
50933;BME280;36921;49.006;9.292;2023-03-19T14:41:26;98596.59;;;16.40;100.00
50933;BME280;36921;49.006;9.292;2023-03-19T14:49:43;98623.59;;;15.32;100.00
50933;BME280;36921;49.006;9.292;2023-03-19T14:52:31;98618.75;;;15.23;100.00